Chandler, Chandler Municipal Airport (KCHD)

NameChandler Municipal Airport
CityChandler
CountryUnited States
ICAOKCHD
IATA
Altitude379 m
CoordinatesGoogle Map
Live Air TrafficLiveATC.net
METARKCHD 210347Z 29006KT 10SM FEW120 37/05 A2975 RMK LAST
2019-08-21 03:47:00 Wind: West (290°) 3.09 m/s - Visibility: 16093.4 m - Temperature: 37 °C - Dew point: 5 °C - Humidity: 13.7% - Pressure: 1007.45 hPa

Sorry, no flights used the airport in this database.